sensor_id;sensor_type;location;lat;lon;timestamp;P1;P2;P0
55304;PMS7003;65692;51.378;19.824;2024-01-07T00:00:44;4.50;3.00;2.50
55304;PMS7003;65692;51.378;19.824;2024-01-07T00:03:11;4.50;3.25;1.50
55304;PMS7003;65692;51.378;19.824;2024-01-07T00:05:38;4.00;4.00;3.75
55304;PMS7003;65692;51.378;19.824;2024-01-07T00:08:05;6.50;4.50;4.00
55304;PMS7003;65692;51.378;19.824;2024-01-07T00:10:31;7.25;6.00;4.00
55304;PMS7003;65692;51.378;19.824;2024-01-07T00:12:58;6.75;3.00;3.00
55304;PMS7003;65692;51.378;19.824;2024-01-07T00:15:25;4.00;3.25;3.00
55304;PMS7003;65692;51.378;19.824;2024-01-07T00:17:53;7.25;3.00;3.00
55304;PMS7003;65692;51.378;19.824;2024-01-07T00:20:20;3.00;1.00;1.00
55304;PMS7003;65692;51.378;19.824;2024-01-07T00:22:47;4.00;4.00;3.00
55304;PMS7003;65692;51.378;19.824;2024-01-07T00:25:13;5.25;5.00;4.00
55304;PMS7003;65692;51.378;19.824;2024-01-07T00:27:40;10.50;3.00;3.00
55304;PMS7003;65692;51.378;19.824;2024-01-07T00:30:06;6.00;3.25;2.50
55304;PMS7003;65692;51.378;19.824;2024-01-07T00:32:33;1.00;1.00;0.00
55304;PMS7003;65692;51.378;19.824;2024-01-07T00:35:00;6.00;3.00;3.00
55304;PMS7003;65692;51.378;19.824;2024-01-07T00:37:27;8.00;4.50;4.00
55304;PMS7003;65692;51.378;19.824;2024-01-07T00:39:54;4.75;4.00;3.00
55304;PMS7003;65692;51.378;19.824;2024-01-07T00:42:20;8.50;4.00;3.00
55304;PMS7003;65692;51.378;19.824;2024-01-07T00:44:47;5.50;5.50;4.00
55304;PMS7003;65692;51.378;19.824;2024-01-07T00:47:14;4.00;4.00;3.75
55304;PMS7003;65692;51.378;19.824;2024-01-07T00:49:41;10.00;4.00;3.50
55304;PMS7003;65692;51.378;19.824;2024-01-07T00:52:08;8.50;3.75;3.00
55304;PMS7003;65692;51.378;19.824;2024-01-07T00:54:35;4.50;4.00;3.50
55304;PMS7003;65692;51.378;19.824;2024-01-07T00:57:02;4.00;3.00;2.00
55304;PMS7003;65692;51.378;19.824;2024-01-07T00:59:28;6.50;5.00;4.00
55304;PMS7003;65692;51.378;19.824;2024-01-07T01:01:56;5.00;4.50;2.50
55304;PMS7003;65692;51.378;19.824;2024-01-07T01:04:22;4.00;3.25;3.25
55304;PMS7003;65692;51.378;19.824;2024-01-07T01:06:49;6.75;6.00;3.50
55304;PMS7003;65692;51.378;19.824;2024-01-07T01:09:16;3.00;3.00;1.00
55304;PMS7003;65692;51.378;19.824;2024-01-07T01:11:43;7.00;3.00;1.00
55304;PMS7003;65692;51.378;19.824;2024-01-07T01:14:10;7.00;6.00;4.00
55304;PMS7003;65692;51.378;19.824;2024-01-07T01:16:37;4.00;3.75;3.25
55304;PMS7003;65692;51.378;19.824;2024-01-07T01:19:03;9.00;4.00;3.75
55304;PMS7003;65692;51.378;19.824;2024-01-07T01:21:30;4.00;4.00;3.00
55304;PMS7003;65692;51.378;19.824;2024-01-07T01:23:57;3.75;3.75;3.25
55304;PMS7003;65692;51.378;19.824;2024-01-07T01:26:24;3.75;3.00;3.00
55304;PMS7003;65692;51.378;19.824;2024-01-07T01:28:51;4.00;1.50;1.00
55304;PMS7003;65692;51.378;19.824;2024-01-07T01:31:17;2.00;2.00;1.00
55304;PMS7003;65692;51.378;19.824;2024-01-07T01:33:44;5.50;4.50;3.75
55304;PMS7003;65692;51.378;19.824;2024-01-07T01:36:11;4.00;4.00;4.00
55304;PMS7003;65692;51.378;19.824;2024-01-07T01:38:37;3.75;3.00;2.00
55304;PMS7003;65692;51.378;19.824;2024-01-07T01:41:04;7.00;4.50;4.00
55304;PMS7003;65692;51.378;19.824;2024-01-07T01:43:31;5.50;3.50;3.00
55304;PMS7003;65692;51.378;19.824;2024-01-07T01:45:58;4.50;3.00;3.00
55304;PMS7003;65692;51.378;19.824;2024-01-07T01:48:25;4.00;3.00;2.50
55304;PMS7003;65692;51.378;19.824;2024-01-07T01:50:53;8.50;7.00;3.00
55304;PMS7003;65692;51.378;19.824;2024-01-07T01:53:20;5.50;4.00;3.25
55304;PMS7003;65692;51.378;19.824;2024-01-07T01:55:47;10.00;7.00;5.00
55304;PMS7003;65692;51.378;19.824;2024-01-07T01:58:14;8.50;4.50;3.00
55304;PMS7003;65692;51.378;19.824;2024-01-07T02:00:44;6.75;5.50;4.50
55304;PMS7003;65692;51.378;19.824;2024-01-07T02:03:11;3.00;1.50;1.00
55304;PMS7003;65692;51.378;19.824;2024-01-07T02:05:37;8.25;6.00;3.75
55304;PMS7003;65692;51.378;19.824;2024-01-07T02:08:04;9.75;6.50;5.50
55304;PMS7003;65692;51.378;19.824;2024-01-07T02:10:32;6.00;3.75;3.25
55304;PMS7003;65692;51.378;19.824;2024-01-07T02:13:06;5.50;4.00;3.00
55304;PMS7003;65692;51.378;19.824;2024-01-07T02:15:33;5.00;5.00;5.00
55304;PMS7003;65692;51.378;19.824;2024-01-07T02:18:01;6.75;4.50;4.25
55304;PMS7003;65692;51.378;19.824;2024-01-07T02:20:28;5.00;3.75;3.50
55304;PMS7003;65692;51.378;19.824;2024-01-07T02:22:55;3.25;3.00;1.50
55304;PMS7003;65692;51.378;19.824;2024-01-07T02:25:23;8.50;5.00;4.00
55304;PMS7003;65692;51.378;19.824;2024-01-07T02:27:50;12.25;6.00;5.50
55304;PMS7003;65692;51.378;19.824;2024-01-07T02:30:17;6.75;4.00;3.00
55304;PMS7003;65692;51.378;19.824;2024-01-07T02:32:44;8.00;6.00;4.50
55304;PMS7003;65692;51.378;19.824;2024-01-07T02:35:11;7.00;7.00;4.00
55304;PMS7003;65692;51.378;19.824;2024-01-07T02:37:37;0.75;0.00;0.00
55304;PMS7003;65692;51.378;19.824;2024-01-07T02:40:04;9.00;7.00;6.00
55304;PMS7003;65692;51.378;19.824;2024-01-07T02:42:31;4.00;4.00;3.00
55304;PMS7003;65692;51.378;19.824;2024-01-07T02:44:57;4.00;1.00;1.00
55304;PMS7003;65692;51.378;19.824;2024-01-07T02:47:24;5.50;3.50;3.00
55304;PMS7003;65692;51.378;19.824;2024-01-07T02:49:50;6.75;4.00;2.50
55304;PMS7003;65692;51.378;19.824;2024-01-07T02:52:17;7.25;4.75;3.50
55304;PMS7003;65692;51.378;19.824;2024-01-07T02:54:44;5.50;3.00;3.00
55304;PMS7003;65692;51.378;19.824;2024-01-07T02:57:11;5.25;4.50;4.00
55304;PMS7003;65692;51.378;19.824;2024-01-07T02:59:37;6.00;2.50;1.00
55304;PMS7003;65692;51.378;19.824;2024-01-07T03:02:04;3.00;3.00;3.00
55304;PMS7003;65692;51.378;19.824;2024-01-07T03:04:31;6.75;3.50;2.50
55304;PMS7003;65692;51.378;19.824;2024-01-07T03:06:57;7.00;6.00;3.50
55304;PMS7003;65692;51.378;19.824;2024-01-07T03:09:24;6.50;4.75;3.50
55304;PMS7003;65692;51.378;19.824;2024-01-07T03:11:51;7.50;4.00;3.00
55304;PMS7003;65692;51.378;19.824;2024-01-07T03:14:18;4.00;4.00;3.00
55304;PMS7003;65692;51.378;19.824;2024-01-07T03:16:46;5.50;4.00;3.00
55304;PMS7003;65692;51.378;19.824;2024-01-07T03:19:13;5.00;4.00;3.25
55304;PMS7003;65692;51.378;19.824;2024-01-07T03:21:40;9.75;4.50;4.00
55304;PMS7003;65692;51.378;19.824;2024-01-07T03:24:06;4.50;4.50;3.50
55304;PMS7003;65692;51.378;19.824;2024-01-07T03:26:33;4.75;4.00;4.00
55304;PMS7003;65692;51.378;19.824;2024-01-07T03:29:00;3.25;3.25;2.50
55304;PMS7003;65692;51.378;19.824;2024-01-07T03:31:27;4.00;4.00;3.50
55304;PMS7003;65692;51.378;19.824;2024-01-07T03:33:54;3.50;1.00;1.00
55304;PMS7003;65692;51.378;19.824;2024-01-07T03:36:21;3.00;3.00;3.00
55304;PMS7003;65692;51.378;19.824;2024-01-07T03:38:48;8.00;5.00;4.00
55304;PMS7003;65692;51.378;19.824;2024-01-07T03:41:18;4.00;1.50;1.00
55304;PMS7003;65692;51.378;19.824;2024-01-07T03:43:45;7.00;3.00;3.00
55304;PMS7003;65692;51.378;19.824;2024-01-07T03:46:12;8.50;4.00;4.00
55304;PMS7003;65692;51.378;19.824;2024-01-07T03:48:39;6.25;5.50;3.75
55304;PMS7003;65692;51.378;19.824;2024-01-07T03:51:06;8.00;3.50;3.00
55304;PMS7003;65692;51.378;19.824;2024-01-07T03:53:33;6.75;6.00;5.00
55304;PMS7003;65692;51.378;19.824;2024-01-07T03:56:00;1.00;1.00;0.00
55304;PMS7003;65692;51.378;19.824;2024-01-07T03:58:27;4.75;3.50;3.00
55304;PMS7003;65692;51.378;19.824;2024-01-07T04:00:53;5.75;4.00;3.00
55304;PMS7003;65692;51.378;19.824;2024-01-07T04:03:20;3.75;3.00;1.50
55304;PMS7003;65692;51.378;19.824;2024-01-07T04:05:47;11.50;6.25;4.50
55304;PMS7003;65692;51.378;19.824;2024-01-07T04:08:13;4.25;3.00;3.00
55304;PMS7003;65692;51.378;19.824;2024-01-07T04:10:42;5.50;4.00;3.50
55304;PMS7003;65692;51.378;19.824;2024-01-07T04:13:09;4.00;4.00;3.00
55304;PMS7003;65692;51.378;19.824;2024-01-07T04:15:36;4.00;3.75;3.00
55304;PMS7003;65692;51.378;19.824;2024-01-07T04:18:03;4.50;4.50;4.00
55304;PMS7003;65692;51.378;19.824;2024-01-07T04:20:30;5.50;5.50;4.00
55304;PMS7003;65692;51.378;19.824;2024-01-07T04:22:57;4.50;4.25;3.00
55304;PMS7003;65692;51.378;19.824;2024-01-07T04:25:24;3.75;3.75;3.00
55304;PMS7003;65692;51.378;19.824;2024-01-07T04:27:51;7.50;3.50;2.00
55304;PMS7003;65692;51.378;19.824;2024-01-07T04:30:18;3.00;3.00;3.00
55304;PMS7003;65692;51.378;19.824;2024-01-07T04:32:45;4.00;3.00;2.00
55304;PMS7003;65692;51.378;19.824;2024-01-07T04:35:11;6.50;4.00;3.00
55304;PMS7003;65692;51.378;19.824;2024-01-07T04:37:38;9.00;3.75;3.50
55304;PMS7003;65692;51.378;19.824;2024-01-07T04:40:05;7.00;3.25;3.00
55304;PMS7003;65692;51.378;19.824;2024-01-07T04:42:32;4.50;3.75;3.00
55304;PMS7003;65692;51.378;19.824;2024-01-07T04:44:59;7.25;4.00;4.00
55304;PMS7003;65692;51.378;19.824;2024-01-07T04:49:54;7.50;6.25;6.00
55304;PMS7003;65692;51.378;19.824;2024-01-07T04:52:22;6.00;3.75;3.00
55304;PMS7003;65692;51.378;19.824;2024-01-07T04:54:52;6.75;5.50;4.00
55304;PMS7003;65692;51.378;19.824;2024-01-07T04:57:19;5.50;3.75;3.00
55304;PMS7003;65692;51.378;19.824;2024-01-07T04:59:46;8.50;6.75;6.00
55304;PMS7003;65692;51.378;19.824;2024-01-07T05:02:13;5.25;2.50;2.00
55304;PMS7003;65692;51.378;19.824;2024-01-07T05:04:39;7.50;5.50;4.50
55304;PMS7003;65692;51.378;19.824;2024-01-07T05:07:06;7.50;4.00;3.75
55304;PMS7003;65692;51.378;19.824;2024-01-07T05:09:33;3.25;1.00;0.75
55304;PMS7003;65692;51.378;19.824;2024-01-07T05:12:00;10.50;6.00;4.50
55304;PMS7003;65692;51.378;19.824;2024-01-07T05:14:27;4.75;3.75;2.50
55304;PMS7003;65692;51.378;19.824;2024-01-07T05:16:54;6.50;6.25;4.50
55304;PMS7003;65692;51.378;19.824;2024-01-07T05:19:23;8.50;4.00;2.50
55304;PMS7003;65692;51.378;19.824;2024-01-07T05:21:50;5.50;3.25;3.00
55304;PMS7003;65692;51.378;19.824;2024-01-07T05:24:17;7.25;6.75;4.25
55304;PMS7003;65692;51.378;19.824;2024-01-07T05:26:44;12.75;6.50;6.25
55304;PMS7003;65692;51.378;19.824;2024-01-07T05:29:11;12.25;10.00;7.50
55304;PMS7003;65692;51.378;19.824;2024-01-07T05:31:41;15.75;10.00;9.00
55304;PMS7003;65692;51.378;19.824;2024-01-07T05:34:08;11.50;10.00;6.75
55304;PMS7003;65692;51.378;19.824;2024-01-07T05:36:35;10.50;10.25;7.00
55304;PMS7003;65692;51.378;19.824;2024-01-07T05:39:02;15.75;12.00;9.00
55304;PMS7003;65692;51.378;19.824;2024-01-07T05:41:29;8.50;8.50;6.00
55304;PMS7003;65692;51.378;19.824;2024-01-07T05:43:56;7.75;7.75;5.75
55304;PMS7003;65692;51.378;19.824;2024-01-07T05:46:22;16.25;10.50;9.00
55304;PMS7003;65692;51.378;19.824;2024-01-07T05:48:49;10.75;9.00;6.00
55304;PMS7003;65692;51.378;19.824;2024-01-07T05:51:16;8.25;6.50;3.50
55304;PMS7003;65692;51.378;19.824;2024-01-07T05:53:44;3.00;3.00;2.50
55304;PMS7003;65692;51.378;19.824;2024-01-07T05:56:11;16.75;10.00;6.50
55304;PMS7003;65692;51.378;19.824;2024-01-07T05:58:37;10.50;9.00;7.00
55304;PMS7003;65692;51.378;19.824;2024-01-07T06:01:04;12.00;10.00;8.75
55304;PMS7003;65692;51.378;19.824;2024-01-07T06:03:31;13.50;9.25;6.25
55304;PMS7003;65692;51.378;19.824;2024-01-07T06:05:58;7.00;5.50;4.00
55304;PMS7003;65692;51.378;19.824;2024-01-07T06:08:26;15.25;10.00;7.00
55304;PMS7003;65692;51.378;19.824;2024-01-07T06:10:52;11.50;7.50;6.50
55304;PMS7003;65692;51.378;19.824;2024-01-07T06:13:19;13.00;8.50;6.75
55304;PMS7003;65692;51.378;19.824;2024-01-07T06:15:45;6.50;6.00;4.00
55304;PMS7003;65692;51.378;19.824;2024-01-07T06:18:12;13.50;9.00;7.00
55304;PMS7003;65692;51.378;19.824;2024-01-07T06:20:39;9.00;7.00;6.75
55304;PMS7003;65692;51.378;19.824;2024-01-07T06:23:06;13.50;12.00;10.00
55304;PMS7003;65692;51.378;19.824;2024-01-07T06:25:32;12.50;11.00;9.00
55304;PMS7003;65692;51.378;19.824;2024-01-07T06:27:59;16.50;12.50;10.00
55304;PMS7003;65692;51.378;19.824;2024-01-07T06:30:26;20.50;14.50;10.00
55304;PMS7003;65692;51.378;19.824;2024-01-07T06:32:52;11.25;6.25;4.00
55304;PMS7003;65692;51.378;19.824;2024-01-07T06:35:19;14.75;14.75;9.00
55304;PMS7003;65692;51.378;19.824;2024-01-07T06:37:46;7.00;7.00;5.00
55304;PMS7003;65692;51.378;19.824;2024-01-07T06:40:12;14.50;12.25;7.00
55304;PMS7003;65692;51.378;19.824;2024-01-07T06:42:39;11.75;9.25;7.50
55304;PMS7003;65692;51.378;19.824;2024-01-07T06:45:07;14.25;9.25;8.50
55304;PMS7003;65692;51.378;19.824;2024-01-07T06:47:34;15.00;9.75;7.00
55304;PMS7003;65692;51.378;19.824;2024-01-07T06:50:01;11.75;9.00;6.75
55304;PMS7003;65692;51.378;19.824;2024-01-07T06:52:28;6.00;3.00;1.00
55304;PMS7003;65692;51.378;19.824;2024-01-07T06:54:55;5.00;5.00;3.75
55304;PMS7003;65692;51.378;19.824;2024-01-07T06:57:21;32.75;23.25;18.00
55304;PMS7003;65692;51.378;19.824;2024-01-07T06:59:48;17.00;14.75;9.75
55304;PMS7003;65692;51.378;19.824;2024-01-07T07:02:15;35.75;23.00;20.00
55304;PMS7003;65692;51.378;19.824;2024-01-07T07:04:41;108.50;77.50;47.75
55304;PMS7003;65692;51.378;19.824;2024-01-07T07:07:08;20.00;15.50;11.00
55304;PMS7003;65692;51.378;19.824;2024-01-07T07:09:36;91.75;65.25;38.00
55304;PMS7003;65692;51.378;19.824;2024-01-07T07:12:02;15.00;8.00;6.00
55304;PMS7003;65692;51.378;19.824;2024-01-07T07:14:29;40.00;28.75;18.75
55304;PMS7003;65692;51.378;19.824;2024-01-07T07:16:56;11.25;7.00;6.00
55304;PMS7003;65692;51.378;19.824;2024-01-07T07:19:22;12.50;9.75;8.00
55304;PMS7003;65692;51.378;19.824;2024-01-07T07:21:49;7.50;6.50;5.25
55304;PMS7003;65692;51.378;19.824;2024-01-07T07:24:16;10.50;4.50;3.00
55304;PMS7003;65692;51.378;19.824;2024-01-07T07:26:43;9.00;7.00;5.50
55304;PMS7003;65692;51.378;19.824;2024-01-07T07:29:09;12.25;10.50;9.25
55304;PMS7003;65692;51.378;19.824;2024-01-07T07:31:36;11.75;8.75;6.25
55304;PMS7003;65692;51.378;19.824;2024-01-07T07:34:03;13.50;10.25;8.00
55304;PMS7003;65692;51.378;19.824;2024-01-07T07:36:31;14.00;12.25;9.50
55304;PMS7003;65692;51.378;19.824;2024-01-07T07:38:57;9.50;9.00;7.00
55304;PMS7003;65692;51.378;19.824;2024-01-07T07:41:24;15.50;10.00;7.50
55304;PMS7003;65692;51.378;19.824;2024-01-07T07:43:51;11.25;9.25;8.00
55304;PMS7003;65692;51.378;19.824;2024-01-07T07:46:17;12.50;10.25;8.00
55304;PMS7003;65692;51.378;19.824;2024-01-07T07:48:44;13.00;11.50;7.50
55304;PMS7003;65692;51.378;19.824;2024-01-07T07:51:11;7.00;7.00;6.00
55304;PMS7003;65692;51.378;19.824;2024-01-07T07:53:39;15.75;14.50;10.00
55304;PMS7003;65692;51.378;19.824;2024-01-07T07:56:08;12.75;10.50;9.00
55304;PMS7003;65692;51.378;19.824;2024-01-07T07:58:35;30.25;20.00;17.00
55304;PMS7003;65692;51.378;19.824;2024-01-07T08:01:01;29.50;18.25;13.25
55304;PMS7003;65692;51.378;19.824;2024-01-07T08:03:28;20.00;17.00;14.50
55304;PMS7003;65692;51.378;19.824;2024-01-07T08:05:55;22.75;18.00;13.00
55304;PMS7003;65692;51.378;19.824;2024-01-07T08:08:22;21.00;15.75;12.00
55304;PMS7003;65692;51.378;19.824;2024-01-07T08:10:48;24.75;19.50;12.50
55304;PMS7003;65692;51.378;19.824;2024-01-07T08:13:15;11.00;5.50;5.25
55304;PMS7003;65692;51.378;19.824;2024-01-07T08:15:42;7.75;7.75;6.75
55304;PMS7003;65692;51.378;19.824;2024-01-07T08:18:09;40.25;28.25;17.50
55304;PMS7003;65692;51.378;19.824;2024-01-07T08:20:36;16.75;12.75;10.00
55304;PMS7003;65692;51.378;19.824;2024-01-07T08:23:02;23.00;17.00;11.00
55304;PMS7003;65692;51.378;19.824;2024-01-07T08:25:29;18.75;15.00;12.50
55304;PMS7003;65692;51.378;19.824;2024-01-07T08:27:56;27.00;20.75;15.25
55304;PMS7003;65692;51.378;19.824;2024-01-07T08:30:23;63.00;46.00;30.25
55304;PMS7003;65692;51.378;19.824;2024-01-07T08:32:50;67.00;53.25;33.75
55304;PMS7003;65692;51.378;19.824;2024-01-07T08:35:16;49.50;30.25;17.75
55304;PMS7003;65692;51.378;19.824;2024-01-07T08:37:46;58.75;39.00;30.00
55304;PMS7003;65692;51.378;19.824;2024-01-07T08:40:12;40.75;28.25;9.00
55304;PMS7003;65692;51.378;19.824;2024-01-07T08:42:40;33.50;24.25;15.50
55304;PMS7003;65692;51.378;19.824;2024-01-07T08:45:07;22.00;21.00;14.00
55304;PMS7003;65692;51.378;19.824;2024-01-07T08:47:34;24.00;18.75;14.00
55304;PMS7003;65692;51.378;19.824;2024-01-07T08:50:08;33.75;27.00;16.00
55304;PMS7003;65692;51.378;19.824;2024-01-07T08:52:35;79.00;57.50;36.00
55304;PMS7003;65692;51.378;19.824;2024-01-07T08:55:04;58.00;45.75;27.75
55304;PMS7003;65692;51.378;19.824;2024-01-07T08:57:33;26.25;25.00;18.00
55304;PMS7003;65692;51.378;19.824;2024-01-07T08:59:59;36.75;24.75;18.25
55304;PMS7003;65692;51.378;19.824;2024-01-07T09:02:26;28.25;17.00;12.00
55304;PMS7003;65692;51.378;19.824;2024-01-07T09:04:53;27.25;19.75;15.00
55304;PMS7003;65692;51.378;19.824;2024-01-07T09:07:20;30.50;26.00;17.00
55304;PMS7003;65692;51.378;19.824;2024-01-07T09:09:46;21.50;14.00;12.00
55304;PMS7003;65692;51.378;19.824;2024-01-07T09:12:14;19.25;15.25;12.00
55304;PMS7003;65692;51.378;19.824;2024-01-07T09:14:41;16.00;13.00;9.00
55304;PMS7003;65692;51.378;19.824;2024-01-07T09:17:08;26.25;19.75;15.50
55304;PMS7003;65692;51.378;19.824;2024-01-07T09:19:34;13.50;11.00;6.50
55304;PMS7003;65692;51.378;19.824;2024-01-07T09:22:01;18.25;16.25;10.00
55304;PMS7003;65692;51.378;19.824;2024-01-07T09:24:28;17.00;15.50;11.25
55304;PMS7003;65692;51.378;19.824;2024-01-07T09:26:55;20.50;13.50;10.00
55304;PMS7003;65692;51.378;19.824;2024-01-07T09:29:23;16.25;12.75;10.00
55304;PMS7003;65692;51.378;19.824;2024-01-07T09:31:50;15.50;10.00;8.50
55304;PMS7003;65692;51.378;19.824;2024-01-07T09:34:16;13.25;10.00;9.25
55304;PMS7003;65692;51.378;19.824;2024-01-07T09:36:43;18.50;12.25;9.25
55304;PMS7003;65692;51.378;19.824;2024-01-07T09:39:10;9.50;3.75;1.00
55304;PMS7003;65692;51.378;19.824;2024-01-07T09:41:36;18.25;16.00;11.00
55304;PMS7003;65692;51.378;19.824;2024-01-07T09:44:03;19.00;11.75;9.25
55304;PMS7003;65692;51.378;19.824;2024-01-07T09:46:30;19.25;12.00;10.00
55304;PMS7003;65692;51.378;19.824;2024-01-07T09:48:58;15.75;11.00;9.00
55304;PMS7003;65692;51.378;19.824;2024-01-07T09:51:25;12.75;8.00;6.00
55304;PMS7003;65692;51.378;19.824;2024-01-07T09:53:58;20.00;15.75;12.00
55304;PMS7003;65692;51.378;19.824;2024-01-07T09:56:33;9.50;9.50;5.00
55304;PMS7003;65692;51.378;19.824;2024-01-07T09:59:02;11.50;6.75;1.00
55304;PMS7003;65692;51.378;19.824;2024-01-07T10:01:28;23.00;18.75;13.50
55304;PMS7003;65692;51.378;19.824;2024-01-07T10:03:56;18.25;15.00;11.00
55304;PMS7003;65692;51.378;19.824;2024-01-07T10:06:23;22.50;17.00;13.50
55304;PMS7003;65692;51.378;19.824;2024-01-07T10:08:50;20.25;15.50;12.00
55304;PMS7003;65692;51.378;19.824;2024-01-07T10:11:16;14.50;6.00;0.00
55304;PMS7003;65692;51.378;19.824;2024-01-07T10:13:46;21.75;15.00;13.00
55304;PMS7003;65692;51.378;19.824;2024-01-07T10:16:17;30.50;25.50;18.50
55304;PMS7003;65692;51.378;19.824;2024-01-07T10:18:44;15.75;8.75;5.75
55304;PMS7003;65692;51.378;19.824;2024-01-07T10:21:11;35.75;27.75;19.75
55304;PMS7003;65692;51.378;19.824;2024-01-07T10:23:37;27.25;17.75;12.25
55304;PMS7003;65692;51.378;19.824;2024-01-07T10:26:04;3.75;2.50;2.50
55304;PMS7003;65692;51.378;19.824;2024-01-07T10:28:45;30.00;19.00;14.75
55304;PMS7003;65692;51.378;19.824;2024-01-07T10:31:12;21.25;18.00;12.25
55304;PMS7003;65692;51.378;19.824;2024-01-07T10:33:39;35.25;24.00;17.00
55304;PMS7003;65692;51.378;19.824;2024-01-07T10:36:06;20.75;20.00;14.75
55304;PMS7003;65692;51.378;19.824;2024-01-07T10:38:33;34.50;22.00;15.00
55304;PMS7003;65692;51.378;19.824;2024-01-07T10:41:00;41.00;27.50;22.00
55304;PMS7003;65692;51.378;19.824;2024-01-07T10:43:31;29.75;21.75;16.00
55304;PMS7003;65692;51.378;19.824;2024-01-07T10:45:59;35.75;27.25;19.25
55304;PMS7003;65692;51.378;19.824;2024-01-07T10:48:27;27.25;15.75;11.50
55304;PMS7003;65692;51.378;19.824;2024-01-07T10:50:58;18.50;17.50;12.75
55304;PMS7003;65692;51.378;19.824;2024-01-07T10:53:26;22.50;20.00;16.50
55304;PMS7003;65692;51.378;19.824;2024-01-07T10:55:54;27.75;20.00;15.25
55304;PMS7003;65692;51.378;19.824;2024-01-07T10:58:26;31.00;22.00;16.50
55304;PMS7003;65692;51.378;19.824;2024-01-07T11:00:53;31.00;25.00;17.50
55304;PMS7003;65692;51.378;19.824;2024-01-07T11:03:36;29.75;24.25;18.25
55304;PMS7003;65692;51.378;19.824;2024-01-07T11:06:09;28.75;26.00;16.50
55304;PMS7003;65692;51.378;19.824;2024-01-07T11:08:43;31.75;21.25;18.00
55304;PMS7003;65692;51.378;19.824;2024-01-07T11:11:18;30.25;18.25;11.00
55304;PMS7003;65692;51.378;19.824;2024-01-07T11:13:50;13.00;10.25;8.75
55304;PMS7003;65692;51.378;19.824;2024-01-07T11:19:02;31.00;22.75;18.00
55304;PMS7003;65692;51.378;19.824;2024-01-07T11:21:28;22.75;22.00;13.00
55304;PMS7003;65692;51.378;19.824;2024-01-07T11:23:55;24.00;14.50;9.00
55304;PMS7003;65692;51.378;19.824;2024-01-07T11:26:23;23.00;14.00;12.00
55304;PMS7003;65692;51.378;19.824;2024-01-07T11:28:51;18.00;18.00;15.00
55304;PMS7003;65692;51.378;19.824;2024-01-07T11:31:25;17.00;13.50;11.50
55304;PMS7003;65692;51.378;19.824;2024-01-07T11:34:08;28.25;20.25;15.50
55304;PMS7003;65692;51.378;19.824;2024-01-07T11:36:36;33.25;18.50;13.00
55304;PMS7003;65692;51.378;19.824;2024-01-07T11:39:03;24.00;21.75;15.25
55304;PMS7003;65692;51.378;19.824;2024-01-07T11:41:33;31.00;23.75;16.25
55304;PMS7003;65692;51.378;19.824;2024-01-07T11:44:00;32.50;26.00;18.50
55304;PMS7003;65692;51.378;19.824;2024-01-07T11:46:32;25.50;17.00;12.00
55304;PMS7003;65692;51.378;19.824;2024-01-07T11:48:59;25.50;24.50;17.75
55304;PMS7003;65692;51.378;19.824;2024-01-07T11:51:30;19.00;11.50;8.50
55304;PMS7003;65692;51.378;19.824;2024-01-07T11:53:58;15.25;15.25;12.00
55304;PMS7003;65692;51.378;19.824;2024-01-07T11:56:25;26.50;19.25;15.25
55304;PMS7003;65692;51.378;19.824;2024-01-07T11:58:53;21.00;15.25;10.50
55304;PMS7003;65692;51.378;19.824;2024-01-07T12:01:19;25.50;17.00;14.50
55304;PMS7003;65692;51.378;19.824;2024-01-07T12:03:46;28.25;24.25;18.25
55304;PMS7003;65692;51.378;19.824;2024-01-07T12:06:13;30.50;21.75;16.00
55304;PMS7003;65692;51.378;19.824;2024-01-07T12:08:41;19.50;13.00;10.50
55304;PMS7003;65692;51.378;19.824;2024-01-07T12:11:09;28.00;24.50;18.00
55304;PMS7003;65692;51.378;19.824;2024-01-07T12:13:37;21.00;17.50;15.75
55304;PMS7003;65692;51.378;19.824;2024-01-07T12:16:04;18.00;15.50;11.75
55304;PMS7003;65692;51.378;19.824;2024-01-07T12:18:32;21.50;17.00;13.25
55304;PMS7003;65692;51.378;19.824;2024-01-07T12:20:59;24.50;18.25;14.50
55304;PMS7003;65692;51.378;19.824;2024-01-07T12:23:26;26.25;23.00;16.00
55304;PMS7003;65692;51.378;19.824;2024-01-07T12:25:53;22.50;18.25;13.50
55304;PMS7003;65692;51.378;19.824;2024-01-07T12:28:20;28.75;18.25;12.75
55304;PMS7003;65692;51.378;19.824;2024-01-07T12:30:47;26.00;17.00;13.00
55304;PMS7003;65692;51.378;19.824;2024-01-07T12:33:17;24.25;20.25;16.50
55304;PMS7003;65692;51.378;19.824;2024-01-07T12:35:45;26.50;21.50;16.75
55304;PMS7003;65692;51.378;19.824;2024-01-07T12:38:13;23.75;20.00;16.00
55304;PMS7003;65692;51.378;19.824;2024-01-07T12:40:39;25.75;19.50;15.00
55304;PMS7003;65692;51.378;19.824;2024-01-07T12:43:06;22.50;17.25;12.50
55304;PMS7003;65692;51.378;19.824;2024-01-07T12:45:36;24.50;18.00;12.50
55304;PMS7003;65692;51.378;19.824;2024-01-07T12:48:02;27.25;21.00;15.00
55304;PMS7003;65692;51.378;19.824;2024-01-07T12:50:29;19.25;17.00;13.75
55304;PMS7003;65692;51.378;19.824;2024-01-07T12:52:58;26.00;17.50;13.50
55304;PMS7003;65692;51.378;19.824;2024-01-07T12:55:26;24.25;18.25;14.50
55304;PMS7003;65692;51.378;19.824;2024-01-07T12:57:53;15.50;13.50;10.00
55304;PMS7003;65692;51.378;19.824;2024-01-07T13:00:21;18.50;14.00;9.25
55304;PMS7003;65692;51.378;19.824;2024-01-07T13:02:47;18.25;14.75;11.50
55304;PMS7003;65692;51.378;19.824;2024-01-07T13:05:15;41.25;26.50;17.50
55304;PMS7003;65692;51.378;19.824;2024-01-07T13:07:42;28.25;19.25;16.00
55304;PMS7003;65692;51.378;19.824;2024-01-07T13:10:09;22.50;17.50;14.50
55304;PMS7003;65692;51.378;19.824;2024-01-07T13:12:39;48.75;38.50;26.00
55304;PMS7003;65692;51.378;19.824;2024-01-07T13:15:15;24.00;18.50;14.00
55304;PMS7003;65692;51.378;19.824;2024-01-07T13:17:43;29.50;21.00;15.75
55304;PMS7003;65692;51.378;19.824;2024-01-07T13:20:10;63.50;46.75;31.00
55304;PMS7003;65692;51.378;19.824;2024-01-07T13:22:38;30.75;24.00;16.50
55304;PMS7003;65692;51.378;19.824;2024-01-07T13:25:05;22.25;16.25;11.50
55304;PMS7003;65692;51.378;19.824;2024-01-07T13:27:32;36.50;25.25;16.50
55304;PMS7003;65692;51.378;19.824;2024-01-07T13:30:02;38.50;30.75;20.50
55304;PMS7003;65692;51.378;19.824;2024-01-07T13:32:30;54.00;39.75;28.50
55304;PMS7003;65692;51.378;19.824;2024-01-07T13:34:57;33.25;21.75;15.75
55304;PMS7003;65692;51.378;19.824;2024-01-07T13:37:24;55.00;47.00;30.25
55304;PMS7003;65692;51.378;19.824;2024-01-07T13:39:51;61.00;45.25;30.00
55304;PMS7003;65692;51.378;19.824;2024-01-07T13:42:17;48.50;36.00;24.00
55304;PMS7003;65692;51.378;19.824;2024-01-07T13:44:44;40.25;23.00;17.75
55304;PMS7003;65692;51.378;19.824;2024-01-07T13:47:13;66.75;45.25;30.00
55304;PMS7003;65692;51.378;19.824;2024-01-07T13:49:40;38.25;29.25;19.75
55304;PMS7003;65692;51.378;19.824;2024-01-07T13:52:08;27.75;24.00;18.25
55304;PMS7003;65692;51.378;19.824;2024-01-07T13:54:37;29.75;23.00;15.25
55304;PMS7003;65692;51.378;19.824;2024-01-07T13:57:04;31.00;24.00;17.50